Time;durP1;ratioP1;P1;durP2;ratioP2;P2;SDS_P1;SDS_P2;PMS_P1;PMS_P2;Temp;Humidity;BMP_temperature;BMP_pressure;BME280_temperature;BME280_humidity;BME280_pressure;Samples;Min_cycle;Max_cycle;Signal;HPM_P1;HPM_P2
2022/07/04 00:00:13;;;;;;;12.67;6.00;;;;;;;21.31;100.00;63080.09;5070524;28;20204;-75
2022/07/04 00:02:42;;;;;;;8.40;5.50;;;;;;;21.07;100.00;63056.69;5069987;28;20698;-75
2022/07/04 00:05:10;;;;;;;13.10;5.53;;;;;;;20.95;100.00;63047.34;5071063;28;20200;-74
2022/07/04 00:07:37;;;;;;;7.70;4.80;;;;;;;20.81;100.00;63027.03;5060203;28;20292;-73
2022/07/04 00:10:05;;;;;;;8.03;4.63;;;;;;;20.93;100.00;63040.00;5062556;28;20215;-74
2022/07/04 00:12:33;;;;;;;6.50;5.00;;;;;;;20.84;100.00;63035.47;5062086;28;20584;-75
2022/07/04 00:15:00;;;;;;;7.50;4.30;;;;;;;20.76;100.00;63029.41;5071125;28;20200;-76
2022/07/04 00:17:28;;;;;;;6.13;4.60;;;;;;;20.39;100.00;62988.81;5063778;28;20201;-76
2022/07/04 00:19:57;;;;;;;8.70;5.27;;;;;;;20.83;100.00;63034.38;5057125;28;20279;-75
2022/07/04 00:22:24;;;;;;;11.43;6.80;;;;;;;20.87;100.00;63038.16;5071124;28;20212;-74
2022/07/04 00:24:52;;;;;;;13.13;6.57;;;;;;;20.72;100.00;63019.34;5057092;28;20232;-75
2022/07/04 00:27:19;;;;;;;14.17;6.10;;;;;;;20.66;100.00;63010.28;5058027;28;20205;-73
2022/07/04 00:29:47;;;;;;;7.03;4.40;;;;;;;20.07;100.00;62947.53;5064185;28;20192;-74
2022/07/04 00:32:14;;;;;;;8.57;4.13;;;;;;;20.53;100.00;63001.38;5050513;28;20236;-74
2022/07/04 00:34:43;;;;;;;13.83;4.27;;;;;;;20.59;100.00;63003.22;5054536;28;20201;-74
2022/07/04 00:37:10;;;;;;;7.00;4.30;;;;;;;20.52;100.00;62998.25;5053940;28;20200;-74
2022/07/04 00:39:37;;;;;;;4.80;3.77;;;;;;;20.50;100.00;62998.69;5054304;28;20208;-76
2022/07/04 00:42:05;;;;;;;8.73;3.80;;;;;;;20.48;100.00;62991.34;5054262;28;20208;-73
2022/07/04 00:44:35;;;;;;;6.50;3.90;;;;;;;20.55;100.00;63004.09;5053839;28;20232;-73
2022/07/04 00:47:02;;;;;;;7.57;3.73;;;;;;;20.40;100.00;62982.69;5066583;28;20687;-74
2022/07/04 00:49:29;;;;;;;8.33;3.70;;;;;;;20.55;100.00;62998.34;5053946;28;20200;-74
2022/07/04 00:51:58;;;;;;;4.43;3.20;;;;;;;20.62;100.00;63008.53;5053728;28;20663;-74
2022/07/04 00:54:28;;;;;;;5.57;4.20;;;;;;;20.59;100.00;63005.81;5053754;28;20240;-74
2022/07/04 00:56:57;;;;;;;4.70;3.70;;;;;;;20.63;100.00;63009.59;5070755;28;20208;-74
2022/07/04 00:59:24;;;;;;;7.23;3.53;;;;;;;20.53;100.00;63001.91;5072942;28;20690;-74
2022/07/04 01:01:52;;;;;;;4.73;3.70;;;;;;;19.70;100.00;62914.75;5053448;28;20201;-74
2022/07/04 01:04:19;;;;;;;6.53;3.90;;;;;;;20.65;100.00;63014.91;5053435;28;20235;-74
2022/07/04 01:06:47;;;;;;;7.53;3.40;;;;;;;20.65;100.00;63012.31;5058266;28;20200;-75
2022/07/04 01:09:16;;;;;;;5.73;3.53;;;;;;;20.48;100.00;62991.34;5073104;28;20207;-74
2022/07/04 01:11:43;;;;;;;7.40;3.77;;;;;;;20.37;100.00;62984.63;5072275;28;20571;-74
2022/07/04 01:14:10;;;;;;;7.47;3.37;;;;;;;20.35;100.00;62982.44;5072799;28;20208;-74
2022/07/04 01:16:37;;;;;;;6.03;3.70;;;;;;;20.35;100.00;62977.28;5071198;28;20605;-74
2022/07/04 01:19:05;;;;;;;6.20;3.83;;;;;;;20.20;100.00;62963.66;5071226;28;20664;-75
2022/07/04 01:21:34;;;;;;;7.73;3.80;;;;;;;20.15;100.00;62956.19;5060915;28;20258;-75
2022/07/04 01:24:01;;;;;;;8.53;4.00;;;;;;;20.13;100.00;62956.06;5072235;28;20247;-73
2022/07/04 01:26:30;;;;;;;51.60;22.63;;;;;;;20.02;100.00;62947.28;5072687;28;20199;-74
2022/07/04 01:28:57;;;;;;;34.27;20.27;;;;;;;19.86;100.00;62926.88;5072212;28;20197;-75
2022/07/04 01:31:24;;;;;;;35.73;18.30;;;;;;;19.93;100.00;62934.97;4999623;28;2080996;-74
2022/07/04 01:33:51;;;;;;;47.17;25.23;;;;;;;19.79;100.00;62921.88;5072803;28;20600;-73
2022/07/04 01:36:18;;;;;;;44.67;22.60;;;;;;;19.88;100.00;62929.03;5072382;28;20265;-75
2022/07/04 01:38:48;;;;;;;16.73;9.30;;;;;;;19.87;100.00;62930.53;5072636;28;20211;-74
2022/07/04 01:41:16;;;;;;;14.70;8.07;;;;;;;19.75;100.00;62917.56;5073389;28;20200;-73
2022/07/04 01:43:43;;;;;;;10.00;5.67;;;;;;;19.79;100.00;62921.88;5071915;28;20234;-74
2022/07/04 01:46:10;;;;;;;60.70;32.53;;;;;;;19.69;100.00;62905.91;5063333;28;20201;-73
2022/07/04 01:48:37;;;;;;;37.77;20.23;;;;;;;19.64;100.00;62905.69;5068598;28;20698;-74
2022/07/04 01:51:04;;;;;;;9.50;4.60;;;;;;;19.36;100.00;62876.50;5072299;28;20196;-74
2022/07/04 01:53:32;;;;;;;10.47;4.03;;;;;;;19.70;100.00;62912.69;5071126;28;20208;-75
2022/07/04 01:56:01;;;;;;;5.97;3.83;;;;;;;19.78;100.00;62918.75;5072721;28;20216;-74
2022/07/04 01:58:30;;;;;;;6.83;3.73;;;;;;;19.80;100.00;62922.97;5071496;28;20199;-74
2022/07/04 02:03:47;;;;;;;4.40;3.57;;;;;;;20.09;100.00;62949.16;5049690;28;20227;-74
2022/07/04 02:06:14;;;;;;;6.87;4.23;;;;;;;19.96;100.00;62937.69;5072237;28;20207;-74
2022/07/04 02:11:28;;;;;;;6.87;3.50;;;;;;;19.98;100.00;62937.25;5071589;28;20203;-73
2022/07/04 02:13:54;;;;;;;5.90;3.40;;;;;;;19.90;100.00;62928.63;5073197;28;20305;-72
2022/07/04 02:16:21;;;;;;;6.70;3.60;;;;;;;19.78;100.00;62920.81;5071885;28;20283;-74
2022/07/04 02:18:48;;;;;;;7.90;3.07;;;;;;;19.82;100.00;62925.13;5072362;28;20203;-74
2022/07/04 02:21:15;;;;;;;7.57;3.20;;;;;;;19.87;100.00;62930.53;5071942;28;20211;-74
2022/07/04 02:23:42;;;;;;;5.80;3.50;;;;;;;19.93;100.00;62931.84;5070556;28;20200;-73
2022/07/04 02:26:09;;;;;;;6.37;3.30;;;;;;;19.97;100.00;62939.31;5056094;28;20200;-75
2022/07/04 02:28:38;;;;;;;12.13;4.60;;;;;;;19.84;100.00;62927.81;5072541;28;20295;-76
2022/07/04 02:31:07;;;;;;;11.13;5.20;;;;;;;19.77;100.00;62915.09;5072809;28;20243;-74
2022/07/04 02:33:34;;;;;;;9.27;4.07;;;;;;;19.80;100.00;62920.38;5055305;28;20197;-74
2022/07/04 02:36:01;;;;;;;16.87;5.40;;;;;;;19.82;100.00;62922.56;5052827;28;20591;-73
2022/07/04 02:38:28;;;;;;;13.63;5.00;;;;;;;19.92;100.00;62931.31;5070188;28;20203;-75
2022/07/04 02:40:55;;;;;;;8.07;4.57;;;;;;;19.80;100.00;62918.34;5072313;28;20228;-74
2022/07/04 02:43:22;;;;;;;9.47;5.40;;;;;;;19.76;100.00;62916.59;5071254;28;20193;-74
2022/07/04 02:45:52;;;;;;;19.23;6.60;;;;;;;19.76;100.00;62913.47;5072001;28;20232;-74
2022/07/04 02:48:20;;;;;;;57.43;25.77;;;;;;;19.62;100.00;62898.88;5067710;28;20208;-74
2022/07/04 02:50:47;;;;;;;60.83;27.40;;;;;;;19.64;100.00;62900.50;5063748;28;20200;-72
2022/07/04 02:53:14;;;;;;;37.27;20.40;;;;;;;19.58;100.00;62899.19;5054134;28;20197;-74
2022/07/04 02:55:41;;;;;;;32.27;14.70;;;;;;;19.56;100.00;62891.88;5051564;28;20224;-74
2022/07/04 02:58:08;;;;;;;32.00;14.67;;;;;;;19.50;100.00;62890.56;5052707;28;20201;-74
2022/07/04 03:00:36;;;;;;;32.47;16.27;;;;;;;19.55;100.00;62893.38;5053087;28;20207;-74
2022/07/04 03:03:04;;;;;;;40.60;15.33;;;;;;;19.51;100.00;62883.88;5052933;28;20668;-74
2022/07/04 03:05:32;;;;;;;28.23;13.60;;;;;;;19.53;100.00;62888.63;5052664;28;20580;-74
2022/07/04 03:07:59;;;;;;;15.07;9.23;;;;;;;19.53;100.00;62891.19;5070388;28;20729;-74
2022/07/04 03:10:26;;;;;;;24.03;11.03;;;;;;;19.61;100.00;62899.84;5071901;28;20223;-74
2022/07/04 03:12:53;;;;;;;16.57;10.50;;;;;;;18.77;100.00;62815.34;5059154;28;20656;-74
2022/07/04 03:15:20;;;;;;;17.50;7.23;;;;;;;19.60;100.00;62901.38;5058670;28;20677;-74
2022/07/04 03:17:47;;;;;;;10.40;5.73;;;;;;;19.52;100.00;62892.72;5070486;28;20279;-74
2022/07/04 03:20:15;;;;;;;7.43;5.00;;;;;;;19.81;100.00;62918.88;5072179;28;20204;-74
2022/07/04 03:22:44;;;;;;;26.77;5.30;;;;;;;19.92;100.00;62935.94;5070144;28;20197;-73
2022/07/04 03:25:11;;;;;;;9.50;4.20;;;;;;;19.97;100.00;62936.16;5071338;28;20781;-74
2022/07/04 03:27:38;;;;;;;12.77;5.03;;;;;;;19.98;100.00;62942.97;5071527;28;20287;-73
2022/07/04 03:30:06;;;;;;;6.80;3.60;;;;;;;19.88;100.00;62931.63;5070637;28;20200;-74
2022/07/04 03:32:33;;;;;;;6.17;3.37;;;;;;;19.81;100.00;62921.47;5070727;28;20232;-73
2022/07/04 03:35:01;;;;;;;7.07;4.27;;;;;;;19.85;100.00;62923.75;5068178;28;20200;-73
2022/07/04 03:37:29;;;;;;;14.50;4.50;;;;;;;19.92;100.00;62930.78;5060156;28;20567;-73
2022/07/04 03:39:56;;;;;;;7.40;4.17;;;;;;;19.94;100.00;62938.63;5072760;28;20209;-73
2022/07/04 03:42:23;;;;;;;10.30;4.53;;;;;;;20.01;100.00;62940.50;5073710;28;20196;-73
2022/07/04 03:44:51;;;;;;;29.53;10.93;;;;;;;20.16;100.00;62965.00;5071476;28;20216;-76
2022/07/04 03:47:18;;;;;;;27.13;8.87;;;;;;;20.28;100.00;62974.88;5061398;28;20291;-73
2022/07/04 03:49:46;;;;;;;17.67;5.87;;;;;;;20.37;100.00;62982.03;5051073;28;20196;-74
2022/07/04 03:52:14;;;;;;;9.97;5.43;;;;;;;20.42;100.00;62990.03;5052413;28;20208;-75
2022/07/04 03:54:42;;;;;;;9.23;4.80;;;;;;;20.51;100.00;62999.75;5051739;28;20699;-74
2022/07/04 03:57:09;;;;;;;7.47;3.53;;;;;;;20.57;100.00;63006.25;5051880;28;20209;-74
2022/07/04 03:59:36;;;;;;;15.87;4.93;;;;;;;20.73;100.00;63018.38;5052391;28;20197;-74
2022/07/04 04:02:03;;;;;;;11.07;4.37;;;;;;;20.94;100.00;63043.16;5052087;28;20227;-74
2022/07/04 04:07:20;;;;;;;9.80;4.00;;;;;;;21.04;100.00;63051.41;5035991;28;20212;-74
2022/07/04 04:09:48;;;;;;;7.97;3.50;;;;;;;21.03;100.00;63047.72;5051625;28;20200;-74
2022/07/04 04:12:15;;;;;;;7.60;3.40;;;;;;;20.84;100.00;63035.47;5052024;28;20611;-74
2022/07/04 04:14:42;;;;;;;6.77;3.87;;;;;;;20.61;100.00;63005.41;5051475;28;20204;-74
2022/07/04 04:17:09;;;;;;;5.97;3.60;;;;;;;20.55;100.00;63004.09;5051355;28;20207;-75
2022/07/04 04:19:36;;;;;;;3.90;3.50;;;;;;;20.96;100.00;63048.44;5056241;28;20234;-74
2022/07/04 04:22:04;;;;;;;22.30;4.20;;;;;;;21.14;100.00;63066.84;5069683;28;20623;-73
2022/07/04 04:24:31;;;;;;;6.53;4.03;;;;;;;21.28;100.00;63082.00;5051500;28;20224;-74
2022/07/04 04:26:59;;;;;;;9.47;3.80;;;;;;;21.46;100.00;63096.31;5051034;28;20197;-74
2022/07/04 04:29:26;;;;;;;9.47;3.73;;;;;;;21.69;100.00;63121.22;5051333;28;20205;-75
2022/07/04 04:31:53;;;;;;;8.90;3.80;;;;;;;21.78;100.00;63136.13;5051025;28;20303;-75
2022/07/04 04:34:21;;;;;;;9.20;4.17;;;;;;;21.91;100.00;63145.06;5050483;28;20687;-73
2022/07/04 04:36:50;;;;;;;7.27;3.70;;;;;;;22.05;100.00;63164.88;5064017;28;20215;-74
2022/07/04 04:39:17;;;;;;;8.47;4.70;;;;;;;22.23;100.00;63179.16;5058112;28;20203;-74
2022/07/04 04:41:44;;;;;;;8.77;3.90;;;;;;;21.47;100.00;63097.41;5070854;28;20200;-74
2022/07/04 04:44:13;;;;;;;6.17;3.50;;;;;;;22.67;100.00;63230.00;5055974;28;20207;-75
2022/07/04 04:46:40;;;;;;;8.00;3.40;;;;;;;22.60;100.00;63217.22;5051073;28;20208;-74
2022/07/04 04:49:07;;;;;;;8.33;3.70;;;;;;;22.84;100.00;63244.75;5050662;28;20706;-75
2022/07/04 04:51:35;;;;;;;8.93;4.43;;;;;;;22.16;100.00;63174.16;5050842;28;20197;-75
2022/07/04 04:54:02;;;;;;;11.13;4.30;;;;;;;22.83;100.00;63244.19;5051217;28;20207;-74
2022/07/04 04:56:29;;;;;;;11.13;3.73;;;;;;;22.85;100.00;63251.56;5051097;28;20206;-73
2022/07/04 04:58:56;;;;;;;8.50;3.83;;;;;;;22.81;100.00;63246.69;5060522;28;20226;-73
2022/07/04 05:01:24;;;;;;;32.20;5.23;;;;;;;23.15;100.00;63278.34;5054778;28;20630;-74
2022/07/04 05:03:51;;;;;;;6.63;2.77;;;;;;;23.23;100.00;63290.16;5051035;28;20213;-74
2022/07/04 05:06:18;;;;;;;9.17;3.40;;;;;;;23.22;100.00;63285.94;5063002;28;20231;-73
2022/07/04 05:08:45;;;;;;;7.67;3.13;;;;;;;23.08;100.00;63275.97;5064446;28;20201;-73
2022/07/04 05:11:12;;;;;;;6.20;3.10;;;;;;;23.29;100.00;63296.66;5050339;28;20201;-74
2022/07/04 05:13:40;;;;;;;7.83;2.93;;;;;;;23.33;100.00;63300.47;5050758;28;20676;-73
2022/07/04 05:16:07;;;;;;;7.50;2.90;;;;;;;23.53;100.00;63322.16;5050898;28;20212;-75
2022/07/04 05:18:35;;;;;;;11.70;3.60;;;;;;;23.63;100.00;63330.41;5051272;28;20593;-74
2022/07/04 05:21:03;;;;;;;8.10;3.20;;;;;;;23.32;100.00;63299.91;5067251;28;20555;-74
2022/07/04 05:23:32;;;;;;;5.17;3.50;;;;;;;23.42;100.00;63310.78;5065654;28;20192;-73
2022/07/04 05:25:58;;;;;;;7.00;3.30;;;;;;;23.62;100.00;63331.38;5057159;28;20311;-73
2022/07/04 05:28:25;;;;;;;7.67;3.13;;;;;;;23.76;100.00;63349.16;5054423;28;20698;-74
2022/07/04 05:30:52;;;;;;;5.23;3.30;;;;;;;23.73;100.00;63343.84;5054444;28;20732;-75
2022/07/04 05:33:19;;;;;;;10.53;3.27;;;;;;;23.81;100.00;63349.94;5015118;28;20207;-75
2022/07/04 05:35:48;;;;;;;11.60;3.27;;;;;;;24.19;100.00;63391.19;5014876;28;20206;-75
2022/07/04 05:38:14;;;;;;;7.37;3.53;;;;;;;24.37;100.00;63409.63;5014814;28;20206;-74
2022/07/04 05:40:41;;;;;;;6.47;3.10;;;;;;;24.50;100.00;63423.72;5021570;28;20214;-74
2022/07/04 05:43:08;;;;;;;9.70;3.23;;;;;;;24.71;100.00;63449.13;5028300;28;20202;-74
2022/07/04 05:45:35;;;;;;;15.73;3.80;;;;;;;24.68;100.00;63443.81;5014410;28;20326;-74
2022/07/04 05:48:03;;;;;;;9.90;3.50;;;;;;;24.68;100.00;63443.28;5014117;28;20210;-76
2022/07/04 05:50:30;;;;;;;6.97;2.87;;;;;;;24.62;100.00;63436.75;5014182;28;20208;-75
2022/07/04 05:52:59;;;;;;;7.90;2.73;;;;;;;24.92;100.00;63471.94;5014111;28;20218;-73
2022/07/04 05:55:26;;;;;;;4.50;3.33;;;;;;;25.25;100.00;63502.59;5026712;28;20230;-73
2022/07/04 05:57:53;;;;;;;10.77;3.57;;;;;;;24.54;100.00;63428.06;5022342;28;20214;-75
2022/07/04 06:00:20;;;;;;;7.83;3.57;;;;;;;25.11;100.00;63490.00;5032832;28;20213;-74
2022/07/04 06:02:47;;;;;;;5.93;3.17;;;;;;;25.37;100.00;63518.22;5032823;28;20203;-74
2022/07/04 06:05:14;;;;;;;9.37;2.93;;;;;;;25.44;100.00;63528.44;5032042;28;20229;-73
2022/07/04 06:07:42;;;;;;;7.97;3.30;;;;;;;25.48;100.00;63529.63;5024033;28;20214;-73
2022/07/04 06:10:11;;;;;;;14.93;3.57;;;;;;;25.34;100.00;63512.34;5018941;28;20193;-74
2022/07/04 06:12:38;;;;;;;12.23;3.40;;;;;;;25.43;100.00;63529.97;5021089;28;20212;-75
2022/07/04 06:15:09;;;;;;;8.10;3.40;;;;;;;25.84;100.00;63568.75;5013601;28;20579;-74
2022/07/04 06:17:37;;;;;;;8.33;3.40;;;;;;;25.90;100.00;63578.44;5013942;28;20739;-74
2022/07/04 06:20:05;;;;;;;13.33;3.43;;;;;;;25.97;100.00;63582.88;5020780;28;20202;-73
2022/07/04 06:22:40;;;;;;;11.63;3.17;;;;;;;26.04;100.00;63595.19;5021969;28;20211;-75
2022/07/04 06:25:10;;;;;;;11.60;3.70;;;;;;;25.63;100.00;63545.94;5032503;28;20224;-75
2022/07/04 06:27:39;;;;;;;10.73;3.10;;;;;;;26.36;100.00;63622.66;5020913;28;20655;-75
2022/07/04 06:30:07;;;;;;;10.73;3.27;;;;;;;26.33;100.00;63626.72;5012512;28;20245;-75
2022/07/04 06:32:43;;;;;;;5.13;3.23;;;;;;;26.10;100.00;63597.03;5041188;28;20339;-74
2022/07/04 06:37:57;;;;;;;8.10;3.50;;;;;;;25.79;100.00;63563.88;5072758;28;20597;-74
2022/07/04 06:40:26;;;;;;;11.83;3.57;;;;;;;25.10;100.00;63489.44;5072299;28;20211;-75
2022/07/04 06:42:55;;;;;;;4.13;3.20;;;;;;;25.85;100.00;63570.41;5072222;28;20204;-74
2022/07/04 06:45:22;;;;;;;12.57;3.80;;;;;;;26.45;100.00;63637.16;5072017;28;20234;-74
2022/07/04 06:47:50;;;;;;;6.20;3.33;;;;;;;26.60;100.00;63650.84;5061679;28;20200;-74
2022/07/04 06:50:18;;;;;;;8.00;3.40;;;;;;;26.70;100.00;63664.34;5056663;28;20204;-74
2022/07/04 06:52:45;;;;;;;6.53;3.50;;;;;;;27.00;100.00;63691.75;5072495;28;20208;-74
2022/07/04 06:55:13;;;;;;;16.30;3.70;;;;;;;26.92;100.00;63688.28;5072218;28;20235;-75
2022/07/04 06:57:40;;;;;;;11.53;3.80;;;;;;;27.01;100.00;63695.44;5071450;28;20682;-74
2022/07/04 07:00:10;;;;;;;13.07;4.43;;;;;;;27.22;100.00;63720.91;5062855;28;20328;-73
2022/07/04 07:02:38;;;;;;;6.90;3.70;;;;;;;27.18;100.00;63713.94;5054772;28;20202;-73
2022/07/04 07:05:07;;;;;;;4.67;3.07;;;;;;;27.11;100.00;63706.31;5062013;28;20202;-75
2022/07/04 07:07:34;;;;;;;12.00;4.03;;;;;;;27.65;100.00;63767.16;5052179;28;20228;-74
2022/07/04 07:10:02;;;;;;;8.73;3.77;;;;;;;27.56;100.00;63755.31;5053297;28;20200;-74
2022/07/04 07:12:31;;;;;;;11.60;3.87;;;;;;;27.83;100.00;63781.00;5060135;28;20288;-74
2022/07/04 07:15:01;;;;;;;12.80;4.07;;;;;;;27.98;100.00;63799.94;5073129;28;20200;-74
2022/07/04 07:17:30;;;;;;;14.13;4.40;;;;;;;28.09;100.00;63806.69;5053868;28;20224;-76
2022/07/04 07:19:59;;;;;;;11.30;4.47;;;;;;;28.23;100.00;63827.19;5060135;28;20200;-75
2022/07/04 07:22:26;;;;;;;10.03;4.40;;;;;;;28.10;100.00;63810.41;5056785;28;20250;-75
2022/07/04 07:24:53;;;;;;;9.03;3.90;;;;;;;28.19;100.00;63817.59;5061526;28;20690;-73
2022/07/04 07:27:21;;;;;;;9.03;3.93;;;;;;;28.26;100.00;63833.06;5071192;28;20599;-74
2022/07/04 07:29:48;;;;;;;13.93;4.63;;;;;;;28.30;100.00;63835.34;5071276;28;20215;-75
2022/07/04 07:32:17;;;;;;;7.63;3.97;;;;;;;28.43;100.00;63848.97;5055446;28;20704;-75
2022/07/04 07:34:46;;;;;;;20.00;9.53;;;;;;;28.73;100.00;63886.91;5051614;28;20205;-75
2022/07/04 07:37:14;;;;;;;11.77;4.50;;;;;;;28.75;100.00;63889.06;5051721;28;20212;-73
2022/07/04 07:39:41;;;;;;;17.23;4.87;;;;;;;28.55;100.00;63862.06;5052433;28;20214;-74
2022/07/04 07:42:08;;;;;;;14.77;4.97;;;;;;;28.81;100.00;63893.00;5052786;28;20204;-74
2022/07/04 07:44:35;;;;;;;13.13;3.77;;;;;;;28.87;100.00;63899.53;5052290;28;20201;-75
2022/07/04 07:47:03;;;;;;;9.90;4.37;;;;;;;29.08;100.00;63919.78;5052677;28;20237;-74
2022/07/04 07:49:30;;;;;;;18.77;4.70;;;;;;;29.46;100.00;63960.66;5051983;28;20259;-74
2022/07/04 07:51:59;;;;;;;30.73;6.20;;;;;;;29.63;100.00;63973.41;5052265;28;20585;-75
2022/07/04 07:54:26;;;;;;;14.70;4.77;;;;;;;29.68;100.00;63984.09;5051580;28;20689;-75
2022/07/04 07:56:53;;;;;;;12.43;4.53;;;;;;;29.48;100.00;63964.94;5051199;28;20220;-74
2022/07/04 07:59:20;;;;;;;10.37;4.20;;;;;;;28.63;100.00;63864.97;5051589;28;20201;-74
2022/07/04 08:01:47;;;;;;;8.73;4.13;;;;;;;28.84;100.00;63893.06;5051240;28;20200;-74
2022/07/04 08:07:02;;;;;;;13.20;5.67;;;;;;;29.44;100.00;63963.19;5051580;28;20258;-74
2022/07/04 08:09:30;;;;;;;14.80;4.70;;;;;;;29.48;100.00;63967.56;5051241;28;20210;-74
2022/07/04 08:11:58;;;;;;;10.10;5.00;;;;;;;29.53;100.00;63965.13;5051023;28;20681;-74
2022/07/04 08:14:25;;;;;;;10.33;4.67;;;;;;;29.34;100.00;63941.78;5051457;28;20202;-73
2022/07/04 08:16:52;;;;;;;16.37;5.30;;;;;;;29.99;100.00;64015.84;5051016;28;20205;-74
2022/07/04 08:19:19;;;;;;;11.77;5.10;;;;;;;29.93;100.00;64011.38;5053596;28;20258;-75
2022/07/04 08:21:47;;;;;;;14.20;5.63;;;;;;;30.28;100.00;64049.56;5061070;28;20231;-74
2022/07/04 08:24:16;;;;;;;6.73;4.53;;;;;;;29.94;100.00;64012.47;5054152;28;20281;-74
2022/07/04 08:26:43;;;;;;;15.53;5.10;;;;;;;30.11;100.00;64025.75;5070428;28;20707;-74
2022/07/04 08:29:20;;;;;;;12.70;4.93;;;;;;;30.01;100.00;64022.72;5062389;28;20208;-75
2022/07/04 08:31:48;;;;;;;17.07;5.20;;;;;;;30.33;100.00;64054.47;5053904;28;20238;-74
2022/07/04 08:34:15;;;;;;;6.80;5.17;;;;;;;30.37;100.00;64056.75;5060626;28;20266;-75
2022/07/04 08:36:42;;;;;;;10.50;5.90;;;;;;;30.62;100.00;64086.66;5050671;28;20207;-74
2022/07/04 08:39:10;;;;;;;14.77;5.67;;;;;;;30.45;100.00;64073.38;5069572;28;20217;-74
2022/07/04 08:41:41;;;;;;;11.13;5.07;;;;;;;30.75;100.00;64100.28;5070365;28;20212;-73
2022/07/04 08:44:10;;;;;;;11.30;5.70;;;;;;;31.00;100.00;64127.59;5058315;28;20214;-74
2022/07/04 08:46:40;;;;;;;10.80;5.40;;;;;;;30.97;100.00;64123.78;5051398;28;20244;-74
2022/07/04 08:49:11;;;;;;;11.17;5.43;;;;;;;31.12;100.00;64143.31;5065200;28;20200;-74
2022/07/04 08:51:48;;;;;;;10.93;4.97;;;;;;;31.15;100.00;64143.44;5070064;28;20201;-75
2022/07/04 08:59:49;;;;;;;8.57;4.63;;;;;;;31.03;100.00;64130.31;5073717;28;20207;-74
2022/07/04 09:02:19;;;;;;;8.57;4.80;;;;;;;31.52;100.00;64189.09;5074163;28;20204;-74
2022/07/04 09:04:47;;;;;;;10.87;5.53;;;;;;;31.59;100.00;64191.47;5055537;28;20803;-75
2022/07/04 09:07:14;;;;;;;13.63;6.20;;;;;;;31.51;100.00;64182.75;5054441;28;20233;-73
2022/07/04 09:09:43;;;;;;;6.23;5.07;;;;;;;31.15;100.00;64146.06;5054118;28;20203;-74
2022/07/04 09:12:13;;;;;;;8.53;4.63;;;;;;;31.22;100.00;64151.06;5054484;28;20680;-75
2022/07/04 09:14:41;;;;;;;8.03;4.40;;;;;;;31.73;100.00;64200.94;5055104;28;20601;-74
2022/07/04 09:17:08;;;;;;;9.20;4.90;;;;;;;31.99;100.00;64239.91;5066166;28;20682;-75
2022/07/04 09:19:37;;;;;;;7.00;4.83;;;;;;;31.98;100.00;64234.06;5065694;28;20204;-74
2022/07/04 09:22:10;;;;;;;11.83;5.20;;;;;;;32.23;100.00;64261.38;5074552;28;20207;-74
2022/07/04 09:24:49;;;;;;;7.97;4.87;;;;;;;32.61;100.00;64299.19;5065645;28;20208;-75
2022/07/04 09:27:33;;;;;;;7.17;4.57;;;;;;;32.71;100.00;64310.13;5053969;28;20679;-75
2022/07/04 09:30:01;;;;;;;9.23;5.23;;;;;;;33.01;100.00;64345.56;5053679;28;20681;-76
2022/07/04 09:32:40;;;;;;;8.50;5.13;;;;;;;32.71;100.00;64315.94;5053892;28;20320;-74
2022/07/04 09:35:09;;;;;;;16.27;5.30;;;;;;;32.91;100.00;64334.63;5053840;28;20206;-74
2022/07/04 09:37:38;;;;;;;8.73;5.10;;;;;;;32.76;100.00;64318.22;5054079;28;20211;-75
2022/07/04 09:40:08;;;;;;;13.27;4.83;;;;;;;32.74;100.00;64321.31;5055261;28;20638;-75
2022/07/04 09:42:42;;;;;;;9.10;4.77;;;;;;;33.32;100.00;64382.09;5065616;28;20284;-74
2022/07/04 09:45:12;;;;;;;8.63;5.13;;;;;;;32.79;100.00;64322.03;5040426;28;20199;-74
2022/07/04 09:47:40;;;;;;;8.00;5.37;;;;;;;33.20;100.00;64371.63;5053268;28;20239;-75
2022/07/04 09:50:09;;;;;;;8.37;5.10;;;;;;;33.06;100.00;64351.03;5063510;28;20212;-76
2022/07/04 09:52:54;;;;;;;6.77;5.53;;;;;;;32.47;100.00;64283.88;5069497;28;20665;-74
2022/07/04 09:55:23;;;;;;;7.50;4.83;;;;;;;32.22;100.00;64262.94;5053507;28;20222;-74
2022/07/04 09:57:53;;;;;;;6.13;4.90;;;;;;;32.69;100.00;64315.84;5073155;28;20203;-76
2022/07/04 10:00:23;;;;;;;10.30;5.27;;;;;;;32.96;100.00;64340.09;5072844;28;20219;-73
2022/07/04 10:02:50;;;;;;;6.67;5.33;;;;;;;33.05;100.00;64350.47;5072967;28;20203;-74
2022/07/04 10:05:22;;;;;;;6.70;5.57;;;;;;;33.25;100.00;64375.00;5072487;28;20199;-74
2022/07/04 10:07:49;;;;;;;6.93;5.17;;;;;;;33.14;100.00;64360.31;5072707;28;20235;-75
2022/07/04 10:10:26;;;;;;;10.37;5.20;;;;;;;33.23;100.00;64369.63;5072400;28;20219;-75
2022/07/04 10:12:56;;;;;;;7.10;5.27;;;;;;;33.51;100.00;64400.25;5061882;28;20741;-74
2022/07/04 10:15:24;;;;;;;12.57;6.10;;;;;;;33.68;100.00;64418.84;5043659;28;20204;-74
2022/07/04 10:17:51;;;;;;;7.97;5.37;;;;;;;33.41;100.00;64391.38;5072992;28;20203;-75
2022/07/04 10:20:19;;;;;;;9.87;5.50;;;;;;;33.23;100.00;64374.91;5072717;28;20219;-75
2022/07/04 10:22:47;;;;;;;10.27;7.43;;;;;;;32.84;100.00;64326.97;5059618;28;20203;-73
2022/07/04 10:25:14;;;;;;;7.83;6.23;;;;;;;33.41;100.00;64389.28;5072727;28;20204;-75
2022/07/04 10:27:42;;;;;;;6.87;5.80;;;;;;;33.91;100.00;64446.63;5072329;28;20234;-74
2022/07/04 10:30:14;;;;;;;6.83;5.97;;;;;;;34.17;100.00;64471.38;5072708;28;20207;-74
2022/07/04 10:32:44;;;;;;;12.53;5.90;;;;;;;33.98;100.00;64449.03;5070662;28;20233;-75
2022/07/04 10:35:14;;;;;;;15.43;5.50;;;;;;;33.20;100.00;64366.88;5052633;28;20210;-75
2022/07/04 10:38:01;;;;;;;6.37;5.00;;;;;;;33.57;100.00;64406.81;5052828;28;20261;-76
2022/07/04 10:40:43;;;;;;;10.60;5.60;;;;;;;33.31;100.00;64378.34;5052686;28;20205;-76
2022/07/04 10:43:53;;;;;;;9.07;5.67;;;;;;;33.88;100.00;64442.81;5055693;28;20203;-75
2022/07/04 10:46:33;;;;;;;8.17;5.27;;;;;;;33.72;100.00;64420.56;5059707;28;20196;-75
2022/07/04 10:49:02;;;;;;;14.60;5.93;;;;;;;33.89;100.00;64441.81;5072039;28;20210;-76
2022/07/04 10:51:41;;;;;;;11.43;5.67;;;;;;;34.03;100.00;64454.50;5072421;28;20210;-75
2022/07/04 10:54:12;;;;;;;10.30;5.67;;;;;;;34.00;100.00;64456.50;5071302;28;20219;-76
2022/07/04 10:56:44;;;;;;;7.23;5.33;;;;;;;34.14;100.00;64468.06;5071522;28;20701;-75
2022/07/04 10:59:14;;;;;;;11.43;5.97;;;;;;;33.46;100.00;64394.78;5046919;28;20206;-74
2022/07/04 11:01:47;;;;;;;10.50;5.67;;;;;;;33.03;100.00;64345.66;5071395;28;20207;-75
2022/07/04 11:04:15;;;;;;;13.13;6.03;;;;;;;33.20;100.00;64366.34;5072282;28;20257;-74
2022/07/04 11:06:56;;;;;;;10.47;6.20;;;;;;;33.49;100.00;64400.69;5070874;28;20617;-74
2022/07/04 11:09:25;;;;;;;8.17;5.40;;;;;;;33.92;100.00;64442.44;5072193;28;20199;-75
2022/07/04 11:11:56;;;;;;;9.47;5.70;;;;;;;34.01;100.00;64454.94;5061766;28;20198;-75
2022/07/04 11:14:42;;;;;;;13.73;5.70;;;;;;;34.09;100.00;64462.63;5052103;28;20698;-75
2022/07/04 11:17:13;;;;;;;13.43;6.10;;;;;;;34.05;100.00;64461.97;5065118;28;20291;-75
2022/07/04 11:19:41;;;;;;;8.50;5.77;;;;;;;34.02;100.00;64455.50;5060506;28;20203;-75
2022/07/04 11:22:10;;;;;;;9.80;5.70;;;;;;;33.71;100.00;64422.13;5068823;28;20205;-74
2022/07/04 11:24:37;;;;;;;10.10;5.93;;;;;;;33.14;100.00;64362.44;5059302;28;20229;-74
2022/07/04 11:27:07;;;;;;;17.13;6.47;;;;;;;33.69;100.00;64419.94;5066587;28;20228;-75
2022/07/04 11:29:35;;;;;;;7.10;6.00;;;;;;;33.09;100.00;64354.31;5084852;28;20658;-74
2022/07/04 11:32:05;;;;;;;7.37;5.83;;;;;;;32.90;100.00;64338.81;5076177;28;20747;-74
2022/07/04 11:34:35;;;;;;;10.20;6.13;;;;;;;33.41;100.00;64389.28;5076485;28;20207;-75
2022/07/04 11:37:04;;;;;;;9.77;6.13;;;;;;;33.49;100.00;64400.69;5071865;28;20259;-74
2022/07/04 11:39:31;;;;;;;8.80;6.37;;;;;;;33.14;100.00;64359.78;5071568;28;20650;-74
2022/07/04 11:47:39;;;;;;;9.50;6.17;;;;;;;34.09;100.00;64463.16;5034200;28;20307;-74
2022/07/04 11:50:10;;;;;;;8.97;6.00;;;;;;;34.60;100.00;64518.97;5070975;28;20283;-74
2022/07/04 11:52:42;;;;;;;9.90;5.47;;;;;;;34.73;100.00;64530.03;5045797;28;20235;-75